Time;durP1;ratioP1;P1;durP2;ratioP2;P2;SDS_P1;SDS_P2;PMS_P1;PMS_P2;Temp;Humidity;BMP_temperature;BMP_pressure;BME280_temperature;BME280_humidity;BME280_pressure;Samples;Min_cycle;Max_cycle;Signal;HPM_P1;HPM_P2
2023/05/08 00:00:28;;;;;;;15.45;9.02;;;410.00;2355.20;;;;;;5043634;28;20029;-83
2023/05/08 00:02:55;;;;;;;14.10;8.60;;;409.70;2355.20;;;;;;5042896;28;20014;-84
2023/05/08 00:05:21;;;;;;;14.18;9.80;;;410.30;2355.20;;;;;;4999621;28;20030;-83
2023/05/08 00:07:49;;;;;;;12.93;8.13;;;410.50;2355.20;;;;;;4983037;28;20038;-83
2023/05/08 00:10:16;;;;;;;13.68;8.60;;;384.20;2329.60;;;;;;4967443;28;20070;-83
2023/05/08 00:12:42;;;;;;;12.75;9.00;;;410.20;2355.20;;;;;;4999736;28;20071;-83
2023/05/08 00:15:09;;;;;;;11.35;8.00;;;410.00;2355.20;;;;;;4967769;28;20015;-84
2023/05/08 00:17:36;;;;;;;12.88;7.30;;;410.50;2355.20;;;;;;5003596;28;20038;-84
2023/05/08 00:20:02;;;;;;;13.75;8.68;;;435.30;2355.20;;;;;;5003018;28;20102;-85
2023/05/08 00:22:30;;;;;;;13.00;9.45;;;410.00;2355.20;;;;;;4993393;28;20007;-83
2023/05/08 00:24:57;;;;;;;14.13;8.95;;;409.80;2355.20;;;;;;4948466;29;20136;-83
2023/05/08 00:27:23;;;;;;;14.25;9.27;;;409.90;2355.20;;;;;;4964066;28;20007;-84
2023/05/08 00:29:49;;;;;;;9.73;8.10;;;384.80;2329.60;;;;;;4971073;28;20092;-83
2023/05/08 00:32:15;;;;;;;10.80;8.32;;;409.90;2355.20;;;;;;4985684;28;20022;-83
2023/05/08 00:34:43;;;;;;;11.00;7.85;;;384.50;2329.60;;;;;;4999667;28;20029;-83
2023/05/08 00:37:09;;;;;;;11.57;8.25;;;409.70;2355.20;;;;;;5002255;28;20015;-82
2023/05/08 00:39:35;;;;;;;10.13;7.03;;;409.70;2355.20;;;;;;5002361;28;20034;-83
2023/05/08 00:42:01;;;;;;;12.73;8.00;;;409.80;2355.20;;;;;;5013217;28;20014;-83
2023/05/08 00:44:28;;;;;;;10.13;7.53;;;409.90;2355.20;;;;;;5052401;28;20026;-84
2023/05/08 00:46:54;;;;;;;12.60;7.43;;;409.90;2355.20;;;;;;5019607;28;20018;-84
2023/05/08 00:49:22;;;;;;;12.07;7.63;;;384.60;2329.60;;;;;;5019024;28;20054;-84
2023/05/08 00:51:51;;;;;;;10.00;7.05;;;410.00;2355.20;;;;;;5019267;28;20022;-83
2023/05/08 00:54:19;;;;;;;12.45;7.28;;;410.00;2355.20;;;;;;5034722;28;20045;-86
2023/05/08 00:56:48;;;;;;;11.60;7.90;;;410.00;2355.20;;;;;;5022289;28;20085;-83
2023/05/08 00:59:17;;;;;;;12.70;8.15;;;410.00;2355.20;;;;;;5038920;28;20006;-82
2023/05/08 01:01:43;;;;;;;16.25;9.75;;;409.90;2355.20;;;;;;5055011;28;20053;-84
2023/05/08 01:04:10;;;;;;;14.82;9.55;;;409.60;2355.20;;;;;;5041962;28;20017;-83
2023/05/08 01:06:36;;;;;;;13.40;8.95;;;435.40;2355.20;;;;;;5018657;28;20014;-82
2023/05/08 01:09:02;;;;;;;15.95;9.70;;;384.60;2329.60;;;;;;5025513;28;20018;-82
2023/05/08 01:11:41;;;;;;;14.77;9.68;;;384.40;2329.60;;;;;;5017769;28;20114;-82
2023/05/08 01:14:57;;;;;;;13.18;9.43;;;384.40;2329.60;;;;;;5017105;28;20029;-82
2023/05/08 01:17:45;;;;;;;12.63;9.00;;;384.50;2329.60;;;;;;5021128;28;20022;-83
2023/05/08 01:20:18;;;;;;;12.13;8.05;;;384.70;2329.60;;;;;;5016670;28;20093;-82
2023/05/08 01:23:15;;;;;;;15.07;8.18;;;384.90;2329.60;;;;;;5051331;28;20026;-83
2023/05/08 01:26:02;;;;;;;12.90;7.55;;;409.60;2355.20;;;;;;5036023;28;20029;-84
2023/05/08 01:28:31;;;;;;;11.93;8.32;;;384.90;2329.60;;;;;;5036142;28;20050;-83
2023/05/08 01:31:23;;;;;;;12.23;8.52;;;384.90;2329.60;;;;;;5036813;28;20006;-83
2023/05/08 01:33:54;;;;;;;12.70;8.40;;;384.90;2329.60;;;;;;5036205;28;20010;-82
2023/05/08 01:36:49;;;;;;;11.75;8.20;;;384.90;2329.60;;;;;;5035407;28;20033;-82
2023/05/08 01:39:42;;;;;;;10.18;7.82;;;409.70;2355.20;;;;;;5052766;28;20034;-83
2023/05/08 01:42:34;;;;;;;12.30;7.97;;;384.60;2329.60;;;;;;5052878;28;20010;-83
2023/05/08 01:45:06;;;;;;;11.30;8.00;;;384.60;2329.60;;;;;;5037162;28;20017;-82
2023/05/08 01:47:37;;;;;;;11.60;7.00;;;384.60;2329.60;;;;;;5035551;28;20032;-82
2023/05/08 01:50:07;;;;;;;13.77;9.23;;;384.70;2329.60;;;;;;5052023;28;20071;-83
2023/05/08 01:52:49;;;;;;;12.67;8.80;;;384.80;2329.60;;;;;;5047628;28;20022;-82
2023/05/08 01:55:30;;;;;;;11.40;7.85;;;384.80;2329.60;;;;;;5055173;28;20027;-83
2023/05/08 01:57:58;;;;;;;12.90;8.68;;;409.60;2355.20;;;;;;5029435;28;20018;-82
2023/05/08 02:00:27;;;;;;;13.88;8.32;;;409.60;2355.20;;;;;;5016288;28;20041;-83
2023/05/08 02:02:54;;;;;;;13.95;8.80;;;409.90;2355.20;;;;;;5023861;28;20037;-81
2023/05/08 02:05:21;;;;;;;15.45;9.32;;;409.70;2355.20;;;;;;5014417;28;20033;-82
2023/05/08 02:07:50;;;;;;;14.25;8.77;;;409.70;2355.20;;;;;;5024055;28;20114;-82
2023/05/08 02:10:17;;;;;;;14.40;8.82;;;409.70;2355.20;;;;;;5050309;28;20058;-83
2023/05/08 02:12:46;;;;;;;12.77;7.50;;;409.70;2355.20;;;;;;5050550;28;20037;-82
2023/05/08 02:15:14;;;;;;;10.25;7.18;;;409.70;2355.20;;;;;;5047319;28;20052;-83
2023/05/08 02:17:41;;;;;;;9.50;7.03;;;409.80;2355.20;;;;;;5031943;28;20041;-82
2023/05/08 02:20:13;;;;;;;9.70;7.25;;;409.70;2355.20;;;;;;5014057;28;20049;-82
2023/05/08 02:22:43;;;;;;;10.65;7.55;;;409.90;2355.20;;;;;;4997365;28;20030;-82
2023/05/08 02:25:13;;;;;;;13.27;9.38;;;409.80;2355.20;;;;;;4958158;28;20020;-83
2023/05/08 02:27:45;;;;;;;13.75;8.98;;;384.90;2329.60;;;;;;4937196;29;20028;-83
2023/05/08 02:30:14;;;;;;;11.15;8.05;;;384.60;2329.60;;;;;;4919770;29;20145;-82
2023/05/08 02:32:44;;;;;;;11.57;8.48;;;384.70;2329.60;;;;;;4927508;29;20052;-82
2023/05/08 02:35:16;;;;;;;14.00;8.90;;;384.40;2329.60;;;;;;4921495;29;20060;-82
2023/05/08 02:37:44;;;;;;;12.75;8.93;;;384.40;2329.60;;;;;;4917197;29;20036;-83
2023/05/08 02:40:14;;;;;;;14.75;8.68;;;384.10;2329.60;;;;;;4903244;29;20037;-81
2023/05/08 02:42:41;;;;;;;14.20;9.95;;;384.10;2329.60;;;;;;4905348;29;20025;-82
2023/05/08 02:45:08;;;;;;;14.32;9.60;;;384.30;2329.60;;;;;;4915000;29;20129;-83
2023/05/08 02:47:46;;;;;;;16.40;8.90;;;384.30;2329.60;;;;;;4903250;29;20056;-84
2023/05/08 02:50:25;;;;;;;13.10;8.95;;;384.40;2329.60;;;;;;4905920;29;20041;-83
2023/05/08 02:53:01;;;;;;;13.93;8.88;;;384.40;2329.60;;;;;;4942291;29;20092;-82
2023/05/08 02:55:41;;;;;;;9.68;8.23;;;384.30;2329.60;;;;;;4954392;28;20043;-83
2023/05/08 02:58:16;;;;;;;14.75;8.00;;;384.40;2329.60;;;;;;5000240;28;20129;-83
2023/05/08 03:00:54;;;;;;;9.93;8.13;;;384.30;2329.60;;;;;;5018745;28;20037;-80
2023/05/08 03:03:38;;;;;;;12.63;7.93;;;384.20;2329.60;;;;;;5021774;28;20018;-83
2023/05/08 03:06:13;;;;;;;10.70;8.40;;;384.20;2329.60;;;;;;5022309;28;20028;-82
2023/05/08 03:08:41;;;;;;;9.73;7.22;;;359.30;2329.60;;;;;;5021255;28;20025;-82
2023/05/08 03:11:21;;;;;;;12.10;7.82;;;359.30;2329.60;;;;;;5038554;28;20030;-82
2023/05/08 03:13:49;;;;;;;9.48;7.45;;;359.30;2329.60;;;;;;5020931;28;20274;-82
2023/05/08 03:16:20;;;;;;;11.20;7.88;;;384.10;2329.60;;;;;;5012734;28;20022;-82
2023/05/08 03:18:58;;;;;;;11.70;7.70;;;384.10;2329.60;;;;;;5001701;28;20527;-82
2023/05/08 03:21:28;;;;;;;10.27;7.75;;;384.10;2329.60;;;;;;5010111;28;20058;-82
2023/05/08 03:23:57;;;;;;;11.13;8.52;;;384.10;2329.60;;;;;;5020499;28;20036;-82
2023/05/08 03:26:23;;;;;;;10.98;7.80;;;384.10;2329.60;;;;;;5020640;28;20085;-82
2023/05/08 03:28:51;;;;;;;13.38;8.07;;;384.40;2329.60;;;;;;5040352;28;20137;-82
2023/05/08 03:31:20;;;;;;;9.65;7.38;;;384.20;2329.60;;;;;;5053142;28;20022;-82
2023/05/08 03:33:47;;;;;;;9.65;7.90;;;384.20;2329.60;;;;;;5036906;28;20097;-82
2023/05/08 03:36:14;;;;;;;13.07;8.75;;;384.30;2329.60;;;;;;5036536;28;20022;-83
2023/05/08 03:38:41;;;;;;;19.35;9.05;;;384.90;2329.60;;;;;;5052421;28;20408;-83
2023/05/08 03:41:08;;;;;;;17.75;8.75;;;410.00;2355.20;;;;;;5027046;28;20027;-83
2023/05/08 03:43:36;;;;;;;12.90;9.20;;;384.20;2329.60;;;;;;5025066;28;20029;-82
2023/05/08 03:46:07;;;;;;;18.35;10.50;;;409.70;2355.20;;;;;;5053599;28;20037;-82
2023/05/08 03:48:34;;;;;;;19.20;9.82;;;384.40;2329.60;;;;;;5035894;28;20026;-82
2023/05/08 03:51:04;;;;;;;19.77;9.48;;;359.20;2329.60;;;;;;5050892;28;20033;-82
2023/05/08 03:53:31;;;;;;;16.50;9.70;;;359.30;2329.60;;;;;;5036815;28;20036;-82
2023/05/08 03:55:59;;;;;;;19.90;10.27;;;384.50;2329.60;;;;;;5038475;28;20049;-82
2023/05/08 03:58:52;;;;;;;15.85;10.00;;;384.50;2329.60;;;;;;5046196;28;20032;-83
2023/05/08 04:01:42;;;;;;;21.77;9.82;;;384.40;2329.60;;;;;;4973513;28;20037;-82
2023/05/08 04:04:13;;;;;;;21.58;10.00;;;384.40;2329.60;;;;;;5034215;28;20022;-83
2023/05/08 04:07:13;;;;;;;16.33;8.83;;;384.50;2329.60;;;;;;5017346;28;20034;-83
2023/05/08 04:09:50;;;;;;;15.73;10.48;;;384.60;2329.60;;;;;;5033352;28;20106;-82
2023/05/08 04:12:23;;;;;;;19.95;11.85;;;384.30;2329.60;;;;;;5032213;28;20081;-83
2023/05/08 04:14:56;;;;;;;15.77;8.77;;;384.10;2329.60;;;;;;5047524;28;20030;-81
2023/05/08 04:17:47;;;;;;;13.88;8.75;;;384.10;2329.60;;;;;;5035381;28;20085;-81
2023/05/08 04:20:19;;;;;;;12.75;9.57;;;384.20;2329.60;;;;;;5035292;28;20076;-82
2023/05/08 04:22:49;;;;;;;11.77;9.18;;;384.20;2329.60;;;;;;5033760;28;20093;-82
2023/05/08 04:25:17;;;;;;;13.45;9.10;;;384.30;2329.60;;;;;;5033435;28;20030;-82
2023/05/08 04:27:44;;;;;;;10.88;9.23;;;384.40;2329.60;;;;;;5030712;28;20058;-81
2023/05/08 04:30:11;;;;;;;12.48;9.23;;;384.30;2329.60;;;;;;5027027;28;20045;-82
2023/05/08 04:32:37;;;;;;;12.65;8.63;;;384.60;2329.60;;;;;;5034515;28;20026;-82
2023/05/08 04:35:04;;;;;;;13.90;8.27;;;384.60;2329.60;;;;;;5050667;28;20038;-82
2023/05/08 04:37:31;;;;;;;13.18;7.90;;;410.20;2355.20;;;;;;5050874;28;20477;-82
2023/05/08 04:39:57;;;;;;;12.90;8.70;;;384.40;2329.60;;;;;;5052046;28;20022;-84
2023/05/08 04:42:27;;;;;;;9.07;6.88;;;384.60;2329.60;;;;;;5036072;28;20022;-82
2023/05/08 04:44:54;;;;;;;13.05;7.63;;;384.40;2329.60;;;;;;5036792;28;20050;-82
2023/05/08 04:47:20;;;;;;;13.43;8.48;;;359.00;2329.60;;;;;;5036849;28;20030;-83
2023/05/08 04:49:46;;;;;;;12.90;9.18;;;384.00;2329.60;;;;;;5054232;28;20038;-82
2023/05/08 04:52:12;;;;;;;10.77;7.63;;;384.40;2329.60;;;;;;5037957;28;20017;-84
2023/05/08 04:54:38;;;;;;;12.77;8.55;;;384.00;2329.60;;;;;;5038535;28;20065;-84
2023/05/08 04:57:06;;;;;;;14.23;9.05;;;384.50;2329.60;;;;;;5056102;28;20010;-85
2023/05/08 04:59:32;;;;;;;17.15;10.40;;;409.60;2355.20;;;;;;5056163;28;20158;-86
2023/05/08 05:02:01;;;;;;;14.27;9.88;;;384.00;2329.60;;;;;;5055577;28;20049;-86
2023/05/08 05:04:27;;;;;;;17.02;10.15;;;384.10;2329.60;;;;;;5039269;28;20078;-83
2023/05/08 05:06:53;;;;;;;13.80;11.00;;;384.20;2329.60;;;;;;5037780;28;20026;-84
2023/05/08 05:09:20;;;;;;;17.40;11.88;;;384.20;2329.60;;;;;;5037055;28;20105;-83
2023/05/08 05:11:46;;;;;;;14.82;11.60;;;384.00;2329.60;;;;;;5038301;28;20014;-83
2023/05/08 05:14:12;;;;;;;17.38;11.55;;;384.40;2329.60;;;;;;5037927;28;20030;-83
2023/05/08 05:16:38;;;;;;;16.17;12.73;;;384.40;2329.60;;;;;;5038481;28;20032;-83
2023/05/08 05:19:04;;;;;;;16.17;12.57;;;384.50;2329.60;;;;;;5054252;28;20030;-83
2023/05/08 05:21:33;;;;;;;15.32;12.02;;;384.50;2329.60;;;;;;5053957;28;20018;-82
2023/05/08 05:24:00;;;;;;;13.48;10.48;;;384.50;2329.60;;;;;;5037538;28;20042;-83
2023/05/08 05:26:26;;;;;;;11.80;9.50;;;384.60;2329.60;;;;;;5053184;28;20041;-83
2023/05/08 05:28:52;;;;;;;12.20;8.93;;;384.50;2329.60;;;;;;5055369;28;20116;-82
2023/05/08 05:31:18;;;;;;;17.63;13.63;;;384.90;2329.60;;;;;;5046723;28;20030;-82
2023/05/08 05:33:45;;;;;;;20.55;15.73;;;384.30;2329.60;;;;;;5052319;28;20082;-83
2023/05/08 05:36:12;;;;;;;24.70;17.30;;;384.40;2329.60;;;;;;5052171;28;20026;-83
2023/05/08 05:38:38;;;;;;;19.38;13.77;;;409.90;2355.20;;;;;;5052090;28;20030;-82
2023/05/08 05:41:06;;;;;;;16.60;13.68;;;384.60;2329.60;;;;;;5052173;28;20022;-82
2023/05/08 05:43:32;;;;;;;19.52;13.05;;;384.50;2329.60;;;;;;5052727;28;20029;-83
2023/05/08 05:46:06;;;;;;;17.58;12.00;;;384.60;2329.60;;;;;;5050524;28;20026;-82
2023/05/08 05:48:33;;;;;;;15.32;10.05;;;384.60;2329.60;;;;;;5045778;28;20057;-82
2023/05/08 05:50:59;;;;;;;14.48;10.43;;;384.70;2329.60;;;;;;5029546;28;20023;-80
2023/05/08 05:53:25;;;;;;;14.52;11.55;;;384.80;2329.60;;;;;;5025026;28;20026;-81
2023/05/08 05:55:51;;;;;;;20.27;12.15;;;384.20;2329.60;;;;;;5037272;28;20030;-82
2023/05/08 05:58:18;;;;;;;17.63;11.60;;;384.40;2329.60;;;;;;5043215;28;20080;-82
2023/05/08 06:00:45;;;;;;;16.15;11.60;;;409.60;2355.20;;;;;;5042380;28;20025;-83
2023/05/08 06:03:11;;;;;;;15.82;11.65;;;384.00;2329.60;;;;;;5043765;28;20026;-82
2023/05/08 06:05:37;;;;;;;13.00;10.35;;;384.80;2329.60;;;;;;5041693;28;20116;-83
2023/05/08 06:08:04;;;;;;;15.18;11.75;;;384.60;2329.60;;;;;;5043254;28;20033;-83
2023/05/08 06:10:30;;;;;;;14.75;12.10;;;409.70;2355.20;;;;;;5036957;28;20037;-81
2023/05/08 06:12:56;;;;;;;16.35;13.63;;;384.20;2329.60;;;;;;5022270;28;20026;-84
2023/05/08 06:15:23;;;;;;;16.42;12.43;;;384.90;2329.60;;;;;;5031774;28;20026;-81
2023/05/08 06:17:49;;;;;;;15.32;12.90;;;409.70;2355.20;;;;;;5051991;28;20022;-83
2023/05/08 06:20:15;;;;;;;15.52;12.73;;;409.80;2355.20;;;;;;5051702;28;20014;-83
2023/05/08 06:22:41;;;;;;;19.27;13.45;;;409.80;2355.20;;;;;;5051630;28;20046;-82
2023/05/08 06:25:08;;;;;;;17.23;13.50;;;410.00;2355.20;;;;;;5034396;28;20018;-83
2023/05/08 06:27:34;;;;;;;15.65;13.80;;;409.90;2355.20;;;;;;5017673;28;20019;-82
2023/05/08 06:30:01;;;;;;;18.20;12.98;;;410.20;2355.20;;;;;;5031871;28;20065;-85
2023/05/08 06:32:27;;;;;;;18.30;13.98;;;409.90;2355.20;;;;;;5047037;28;20002;-84
2023/05/08 06:34:53;;;;;;;21.67;14.88;;;384.70;2329.60;;;;;;5037413;28;20018;-85
2023/05/08 06:37:20;;;;;;;17.15;14.18;;;435.20;2355.20;;;;;;5036755;28;20017;-84
2023/05/08 06:39:46;;;;;;;20.05;17.42;;;410.40;2355.20;;;;;;5037389;28;20030;-84
2023/05/08 06:42:12;;;;;;;18.80;15.02;;;410.40;2355.20;;;;;;5046452;28;20022;-85
2023/05/08 06:44:39;;;;;;;17.08;12.55;;;410.50;2355.20;;;;;;5057698;28;20056;-85
2023/05/08 06:47:05;;;;;;;15.13;13.40;;;435.20;2355.20;;;;;;5063286;28;20041;-84
2023/05/08 06:49:36;;;;;;;17.88;12.93;;;410.50;2355.20;;;;;;4978664;28;20031;-85
2023/05/08 06:52:02;;;;;;;15.40;11.75;;;410.50;2355.20;;;;;;4982773;28;20063;-84
2023/05/08 06:54:30;;;;;;;15.10;11.63;;;435.30;2355.20;;;;;;4998099;28;20089;-85
2023/05/08 06:56:56;;;;;;;17.23;12.82;;;435.50;2355.20;;;;;;4997426;28;20050;-84
2023/05/08 06:59:22;;;;;;;16.55;11.98;;;435.90;2355.20;;;;;;4996899;28;20042;-84
2023/05/08 07:01:49;;;;;;;13.10;10.68;;;435.60;2355.20;;;;;;4994738;28;20039;-84
2023/05/08 07:04:18;;;;;;;13.13;10.93;;;435.30;2355.20;;;;;;4961413;29;20103;-83
2023/05/08 07:06:45;;;;;;;16.80;10.73;;;435.70;2355.20;;;;;;4961901;28;20028;-84
2023/05/08 07:09:12;;;;;;;13.93;9.73;;;436.00;2355.20;;;;;;4996701;28;20037;-83
2023/05/08 07:11:38;;;;;;;17.83;10.63;;;460.80;2380.80;;;;;;4996722;28;20046;-83
2023/05/08 07:14:04;;;;;;;12.80;9.77;;;460.90;2380.80;;;;;;4996781;28;20023;-83
2023/05/08 07:16:30;;;;;;;13.95;11.82;;;410.30;2355.20;;;;;;4996677;28;20011;-84
2023/05/08 07:18:56;;;;;;;13.90;11.25;;;461.10;2380.80;;;;;;4996875;28;20105;-85
2023/05/08 07:21:22;;;;;;;13.50;10.50;;;461.30;2380.80;;;;;;4991869;28;20042;-85
2023/05/08 07:23:50;;;;;;;12.02;9.70;;;461.40;2380.80;;;;;;4962065;29;20019;-86
2023/05/08 07:26:17;;;;;;;15.15;10.43;;;461.30;2380.80;;;;;;4977537;28;20093;-85
2023/05/08 07:28:43;;;;;;;11.13;9.98;;;461.50;2380.80;;;;;;5053206;28;20046;-85
2023/05/08 07:31:10;;;;;;;14.60;10.82;;;461.60;2380.80;;;;;;5053622;28;20010;-86
2023/05/08 07:33:36;;;;;;;13.20;10.85;;;486.40;2380.80;;;;;;5037254;28;20034;-85
2023/05/08 07:36:02;;;;;;;15.18;9.30;;;486.50;2380.80;;;;;;5053352;28;20030;-86
2023/05/08 07:38:28;;;;;;;13.73;10.57;;;461.50;2380.80;;;;;;5057223;28;20029;-85
2023/05/08 07:41:00;;;;;;;12.13;10.65;;;486.50;2380.80;;;;;;5056653;28;20110;-85
2023/05/08 07:43:28;;;;;;;12.52;10.00;;;486.70;2380.80;;;;;;5057228;28;20049;-86
2023/05/08 07:45:54;;;;;;;13.38;11.10;;;486.70;2380.80;;;;;;5056634;28;20026;-86
2023/05/08 07:48:21;;;;;;;10.38;8.32;;;487.00;2380.80;;;;;;5056598;28;20034;-87
2023/05/08 07:50:52;;;;;;;13.27;9.27;;;487.10;2380.80;;;;;;5056812;28;20048;-86
2023/05/08 07:53:18;;;;;;;10.85;8.35;;;512.30;2380.80;;;;;;5052752;28;20030;-86
2023/05/08 07:55:47;;;;;;;12.93;8.15;;;512.10;2380.80;;;;;;5055763;28;20070;-86
2023/05/08 07:58:13;;;;;;;10.32;7.07;;;487.20;2380.80;;;;;;5022307;28;20029;-85
2023/05/08 08:00:39;;;;;;;10.50;7.35;;;512.40;2380.80;;;;;;5038144;28;20041;-86
2023/05/08 08:03:07;;;;;;;9.98;6.90;;;512.20;2380.80;;;;;;4999527;28;20039;-86
2023/05/08 08:05:33;;;;;;;10.90;8.13;;;512.10;2380.80;;;;;;4983612;28;20090;-86
2023/05/08 08:08:00;;;;;;;9.23;7.93;;;512.00;2380.80;;;;;;4983395;28;20035;-86
2023/05/08 08:10:27;;;;;;;10.68;7.20;;;487.10;2380.80;;;;;;4966948;28;20037;-86
2023/05/08 08:12:53;;;;;;;8.95;7.40;;;512.40;2380.80;;;;;;4967035;28;20011;-86
2023/05/08 08:15:19;;;;;;;9.73;7.75;;;512.50;2380.80;;;;;;4983699;28;20098;-86
2023/05/08 08:17:45;;;;;;;9.02;7.43;;;512.80;2380.80;;;;;;4983509;28;20015;-86
2023/05/08 08:20:37;;;;;;;11.80;7.22;;;512.90;2380.80;;;;;;4983258;28;20035;-84
2023/05/08 08:23:14;;;;;;;11.35;7.55;;;512.90;2380.80;;;;;;4960351;29;20052;-82
2023/05/08 08:26:03;;;;;;;14.07;8.07;;;537.60;2406.40;;;;;;4934246;29;20043;-86
2023/05/08 08:28:35;;;;;;;10.98;8.20;;;537.70;2406.40;;;;;;4958905;29;20059;-85
2023/05/08 08:34:55;;;;;;;13.52;6.55;;;537.90;2406.40;;;;;;4939133;29;20013;-86
2023/05/08 08:41:36;;;;;;;8.80;6.43;;;538.10;2406.40;;;;;;4947313;29;20117;-86
2023/05/08 08:44:50;;;;;;;11.90;7.35;;;538.50;2406.40;;;;;;4881847;29;20026;-87
2023/05/08 08:47:54;;;;;;;9.65;6.68;;;538.40;2406.40;;;;;;4794780;29;20099;-85
2023/05/08 08:51:08;;;;;;;10.10;6.60;;;538.50;2406.40;;;;;;4810431;29;20121;-87
2023/05/08 08:54:50;;;;;;;11.75;7.28;;;538.30;2406.40;;;;;;4807409;30;20095;-86
2023/05/08 09:05:23;;;;;;;8.80;6.60;;;538.00;2406.40;;;;;;4768455;30;20039;-89
2023/05/08 09:19:10;;;;;;;10.55;8.13;;;538.40;2406.40;;;;;;4702161;30;20587;-88
2023/05/08 09:25:57;;;;;;;8.75;7.15;;;563.30;2432.00;;;;;;4775886;30;20092;-87
2023/05/08 09:28:24;;;;;;;94.03;81.68;;;563.30;2432.00;;;;;;4768963;30;20041;-87
2023/05/08 09:31:55;;;;;;;15.50;12.00;;;563.50;2432.00;;;;;;4775687;30;20062;-88
2023/05/08 09:35:37;;;;;;;14.30;12.23;;;563.70;2432.00;;;;;;4818468;29;20095;-87
2023/05/08 09:49:02;;;;;;;13.15;8.13;;;563.70;2432.00;;;;;;4808158;30;20113;-86
2023/05/08 09:52:33;;;;;;;17.20;9.52;;;563.80;2432.00;;;;;;4825491;29;20007;-88
2023/05/08 09:56:11;;;;;;;8.38;7.05;;;564.00;2432.00;;;;;;4789472;30;20039;-88
2023/05/08 09:59:47;;;;;;;10.65;7.28;;;563.60;2432.00;;;;;;4785589;29;20076;-87
2023/05/08 10:10:27;;;;;;;10.43;7.70;;;563.70;2432.00;;;;;;4700404;30;20052;-87
2023/05/08 10:17:07;;;;;;;10.20;8.40;;;563.70;2432.00;;;;;;4699761;30;20053;-89
2023/05/08 10:20:21;;;;;;;10.73;7.93;;;563.70;2432.00;;;;;;4699207;30;20042;-87
2023/05/08 10:23:41;;;;;;;9.32;7.43;;;563.70;2432.00;;;;;;4681263;30;20077;-87
2023/05/08 10:30:47;;;;;;;13.00;8.05;;;563.50;2432.00;;;;;;4685872;30;20141;-89
2023/05/08 10:37:53;;;;;;;8.95;7.65;;;563.40;2432.00;;;;;;4719044;30;20060;-88
2023/05/08 10:44:40;;;;;;;11.43;9.65;;;563.20;2432.00;;;;;;4719658;30;20029;-87
2023/05/08 10:48:10;;;;;;;12.15;10.88;;;563.20;2432.00;;;;;;4724602;30;20009;-88
2023/05/08 10:58:45;;;;;;;15.07;13.55;;;538.30;2406.40;;;;;;4651185;30;20018;-89
2023/05/08 11:08:39;;;;;;;13.65;12.25;;;538.10;2406.40;;;;;;4685889;30;20034;-88
2023/05/08 11:18:47;;;;;;;14.75;13.25;;;537.90;2406.40;;;;;;4663419;30;20046;-87
2023/05/08 11:22:11;;;;;;;14.70;12.20;;;537.90;2406.40;;;;;;4688276;30;20047;-88
2023/05/08 11:45:45;;;;;;;17.95;14.00;;;537.70;2406.40;;;;;;4739088;30;20044;-87
2023/05/08 11:52:56;;;;;;;21.45;17.50;;;512.90;2380.80;;;;;;4743903;30;20032;-88
2023/05/08 11:56:23;;;;;;;21.55;19.55;;;512.90;2380.80;;;;;;4739233;30;20021;-86
2023/05/08 11:59:27;;;;;;;46.03;40.92;;;512.80;2380.80;;;;;;4675417;30;20046;-86
2023/05/08 12:03:12;;;;;;;25.45;23.15;;;512.70;2380.80;;;;;;4724010;30;20048;-89
2023/05/08 12:09:53;;;;;;;22.75;20.55;;;512.40;2380.80;;;;;;4722862;30;20048;-87
2023/05/08 12:13:33;;;;;;;23.77;21.35;;;512.40;2380.80;;;;;;4702807;30;20033;-87
2023/05/08 12:16:03;;;;;;;22.10;19.80;;;512.20;2380.80;;;;;;4619708;31;20027;-85
2023/05/08 12:18:35;;;;;;;23.20;20.85;;;563.30;2432.00;;;;;;4620286;31;20088;-87
2023/05/08 12:21:24;;;;;;;21.98;19.65;;;512.10;2380.80;;;;;;4611535;31;20058;-87
2023/05/08 12:27:41;;;;;;;21.08;18.35;;;512.00;2380.80;;;;;;4654444;30;20085;-87
2023/05/08 12:31:17;;;;;;;41.90;18.90;;;512.00;2380.80;;;;;;4706350;30;20034;-86
2023/05/08 12:35:02;;;;;;;22.90;16.65;;;512.10;2380.80;;;;;;4671560;30;20043;-86
2023/05/08 12:41:03;;;;;;;16.35;13.45;;;512.20;2380.80;;;;;;4602031;31;20106;-84
2023/05/08 12:43:59;;;;;;;16.02;14.32;;;512.20;2380.80;;;;;;4665647;30;20123;-86
2023/05/08 12:47:59;;;;;;;14.50;12.55;;;512.50;2380.80;;;;;;4705675;30;20088;-85
2023/05/08 12:54:04;;;;;;;16.25;11.52;;;512.50;2380.80;;;;;;4705267;30;20045;-86
2023/05/08 12:56:41;;;;;;;13.63;11.43;;;512.40;2380.80;;;;;;4719234;30;20065;-85
2023/05/08 12:59:10;;;;;;;13.70;11.40;;;512.30;2380.80;;;;;;4688066;30;20074;-84
2023/05/08 13:01:49;;;;;;;12.23;11.02;;;512.40;2380.80;;;;;;4710129;30;20069;-84
2023/05/08 13:04:15;;;;;;;11.98;10.75;;;512.30;2380.80;;;;;;4726008;30;20041;-85
2023/05/08 13:07:28;;;;;;;12.90;11.27;;;512.30;2380.80;;;;;;4707556;30;20026;-86
2023/05/08 13:10:49;;;;;;;12.32;11.13;;;512.40;2380.80;;;;;;4761990;30;20234;-86
2023/05/08 13:13:51;;;;;;;14.13;10.70;;;512.50;2380.80;;;;;;4763814;30;20926;-86
2023/05/08 13:16:51;;;;;;;15.32;10.85;;;512.50;2380.80;;;;;;4756822;30;20044;-87
2023/05/08 13:19:42;;;;;;;10.63;9.52;;;512.70;2380.80;;;;;;4742651;30;20033;-86
2023/05/08 13:22:10;;;;;;;10.45;9.45;;;512.50;2380.80;;;;;;4849098;29;20063;-85
2023/05/08 13:24:43;;;;;;;10.43;8.07;;;512.40;2380.80;;;;;;4929352;29;20115;-85
2023/05/08 13:27:13;;;;;;;10.88;7.70;;;512.40;2380.80;;;;;;4939872;28;20041;-84
2023/05/08 13:29:41;;;;;;;9.85;7.28;;;487.30;2380.80;;;;;;4939775;29;20036;-85
2023/05/08 13:32:33;;;;;;;9.73;8.50;;;512.30;2380.80;;;;;;4902121;29;20049;-88
2023/05/08 13:35:29;;;;;;;9.95;8.20;;;512.30;2380.80;;;;;;4847904;29;20037;-86
2023/05/08 13:38:01;;;;;;;9.23;8.15;;;512.30;2380.80;;;;;;4888015;29;20120;-86
2023/05/08 13:40:27;;;;;;;9.43;8.43;;;486.80;2380.80;;;;;;4939796;29;20064;-86
2023/05/08 13:42:54;;;;;;;11.57;10.15;;;487.30;2380.80;;;;;;4940123;29;20035;-86
2023/05/08 13:45:20;;;;;;;10.43;9.43;;;512.10;2380.80;;;;;;4924124;29;20047;-86
2023/05/08 13:48:01;;;;;;;11.10;10.00;;;487.00;2380.80;;;;;;4925467;29;20021;-86
2023/05/08 13:50:27;;;;;;;15.93;11.40;;;512.20;2380.80;;;;;;4936748;29;20033;-84
2023/05/08 13:52:58;;;;;;;12.43;10.02;;;512.10;2380.80;;;;;;4917009;29;20028;-84
2023/05/08 13:55:30;;;;;;;14.30;11.00;;;512.10;2380.80;;;;;;4905092;29;20040;-86
2023/05/08 13:57:57;;;;;;;16.42;10.57;;;512.10;2380.80;;;;;;4949414;28;20028;-87
2023/05/08 14:00:41;;;;;;;10.75;8.52;;;512.20;2380.80;;;;;;4942788;28;20035;-86
2023/05/08 14:03:09;;;;;;;10.48;8.88;;;512.20;2380.80;;;;;;4958790;28;20016;-86
2023/05/08 14:05:54;;;;;;;12.80;9.20;;;512.80;2380.80;;;;;;4942303;29;20035;-84
2023/05/08 14:11:51;;;;;;;9.60;6.40;;;512.70;2380.80;;;;;;4959345;28;20495;-87
2023/05/08 14:14:18;;;;;;;11.63;8.23;;;512.50;2380.80;;;;;;4927162;29;20039;-85
2023/05/08 14:16:44;;;;;;;10.98;7.80;;;512.40;2380.80;;;;;;4934397;29;20036;-86
2023/05/08 14:19:13;;;;;;;7.22;5.72;;;512.60;2380.80;;;;;;4923607;29;20040;-86
2023/05/08 14:21:41;;;;;;;12.73;7.57;;;512.50;2380.80;;;;;;4923764;29;20147;-85
2023/05/08 14:24:09;;;;;;;7.57;5.20;;;512.40;2380.80;;;;;;4954617;29;20150;-86
2023/05/08 14:26:39;;;;;;;5.90;5.07;;;512.40;2380.80;;;;;;4923457;29;20036;-86
2023/05/08 14:29:25;;;;;;;7.20;5.28;;;512.40;2380.80;;;;;;4923404;29;20043;-86
2023/05/08 14:31:59;;;;;;;5.93;4.82;;;512.40;2380.80;;;;;;4938987;29;20046;-86
2023/05/08 14:34:25;;;;;;;6.53;5.40;;;512.40;2380.80;;;;;;4911441;29;20036;-87
2023/05/08 14:37:02;;;;;;;8.02;6.18;;;512.90;2380.80;;;;;;4922057;29;20087;-87
2023/05/08 14:39:29;;;;;;;8.90;5.90;;;512.40;2380.80;;;;;;4975611;28;20038;-86
2023/05/08 14:42:01;;;;;;;8.30;6.40;;;512.20;2380.80;;;;;;4977356;28;20040;-88
2023/05/08 14:44:28;;;;;;;9.25;6.70;;;512.20;2380.80;;;;;;4964284;28;20047;-86
2023/05/08 14:46:55;;;;;;;10.23;6.63;;;487.30;2380.80;;;;;;4975150;28;20019;-86
2023/05/08 14:49:24;;;;;;;8.50;4.88;;;512.20;2380.80;;;;;;4978602;29;20040;-87
2023/05/08 14:52:06;;;;;;;6.03;4.43;;;512.10;2380.80;;;;;;4981452;29;20055;-86
2023/05/08 14:54:32;;;;;;;5.82;5.03;;;512.10;2380.80;;;;;;4966774;28;20090;-86
2023/05/08 14:57:01;;;;;;;8.02;5.53;;;537.90;2406.40;;;;;;4981058;29;20043;-86
2023/05/08 14:59:27;;;;;;;12.38;7.38;;;512.00;2380.80;;;;;;4981684;28;20035;-85